sensor_id;sensor_type;location;lat;lon;timestamp;temperature;humidity
18717;DHT22;9487;50.892;6.906;2022-10-17T00:00:59;16.10;99.90
18717;DHT22;9487;50.892;6.906;2022-10-17T00:03:26;16.10;99.90
18717;DHT22;9487;50.892;6.906;2022-10-17T00:05:53;16.10;99.90
18717;DHT22;9487;50.892;6.906;2022-10-17T00:08:21;16.00;99.90
18717;DHT22;9487;50.892;6.906;2022-10-17T00:10:55;16.00;99.90
18717;DHT22;9487;50.892;6.906;2022-10-17T00:13:22;16.00;99.90
18717;DHT22;9487;50.892;6.906;2022-10-17T00:15:49;16.00;99.90
18717;DHT22;9487;50.892;6.906;2022-10-17T00:18:16;16.10;99.90
18717;DHT22;9487;50.892;6.906;2022-10-17T00:20:43;16.00;99.90
18717;DHT22;9487;50.892;6.906;2022-10-17T00:23:10;16.10;99.90
18717;DHT22;9487;50.892;6.906;2022-10-17T00:25:39;15.90;99.90
18717;DHT22;9487;50.892;6.906;2022-10-17T00:28:08;15.90;99.90
18717;DHT22;9487;50.892;6.906;2022-10-17T00:30:35;15.90;99.90
18717;DHT22;9487;50.892;6.906;2022-10-17T00:33:02;15.90;99.90
18717;DHT22;9487;50.892;6.906;2022-10-17T00:35:29;15.90;99.90
18717;DHT22;9487;50.892;6.906;2022-10-17T00:37:56;15.90;99.90
18717;DHT22;9487;50.892;6.906;2022-10-17T00:40:23;16.00;99.90
18717;DHT22;9487;50.892;6.906;2022-10-17T00:42:52;16.00;99.90
18717;DHT22;9487;50.892;6.906;2022-10-17T00:45:22;16.00;99.90
18717;DHT22;9487;50.892;6.906;2022-10-17T00:47:53;15.90;99.90
18717;DHT22;9487;50.892;6.906;2022-10-17T00:50:21;16.00;99.90
18717;DHT22;9487;50.892;6.906;2022-10-17T00:52:49;16.00;99.90
18717;DHT22;9487;50.892;6.906;2022-10-17T00:55:22;16.10;99.90
18717;DHT22;9487;50.892;6.906;2022-10-17T00:57:52;16.10;99.90
18717;DHT22;9487;50.892;6.906;2022-10-17T01:00:19;16.00;99.90
18717;DHT22;9487;50.892;6.906;2022-10-17T01:02:47;16.00;99.90
18717;DHT22;9487;50.892;6.906;2022-10-17T01:05:15;16.10;99.90
18717;DHT22;9487;50.892;6.906;2022-10-17T01:07:43;16.00;99.90
18717;DHT22;9487;50.892;6.906;2022-10-17T01:10:12;16.10;99.90
18717;DHT22;9487;50.892;6.906;2022-10-17T01:12:56;16.10;99.90
18717;DHT22;9487;50.892;6.906;2022-10-17T01:15:37;16.00;99.90
18717;DHT22;9487;50.892;6.906;2022-10-17T01:18:13;16.00;99.90
18717;DHT22;9487;50.892;6.906;2022-10-17T01:20:59;16.00;99.90
18717;DHT22;9487;50.892;6.906;2022-10-17T01:24:01;15.90;99.90
18717;DHT22;9487;50.892;6.906;2022-10-17T01:26:40;16.00;99.90
18717;DHT22;9487;50.892;6.906;2022-10-17T01:29:36;15.90;99.90
18717;DHT22;9487;50.892;6.906;2022-10-17T01:32:14;15.90;99.90
18717;DHT22;9487;50.892;6.906;2022-10-17T01:34:46;15.80;99.90
18717;DHT22;9487;50.892;6.906;2022-10-17T01:37:19;15.80;99.90
18717;DHT22;9487;50.892;6.906;2022-10-17T01:39:49;15.70;99.90
18717;DHT22;9487;50.892;6.906;2022-10-17T01:42:23;15.70;99.90
18717;DHT22;9487;50.892;6.906;2022-10-17T01:44:56;15.70;99.90
18717;DHT22;9487;50.892;6.906;2022-10-17T01:47:29;15.70;99.90
18717;DHT22;9487;50.892;6.906;2022-10-17T01:49:58;15.70;99.90
18717;DHT22;9487;50.892;6.906;2022-10-17T01:52:40;15.70;99.90
18717;DHT22;9487;50.892;6.906;2022-10-17T01:55:11;15.70;99.90
18717;DHT22;9487;50.892;6.906;2022-10-17T01:57:42;15.70;99.90
18717;DHT22;9487;50.892;6.906;2022-10-17T02:00:14;15.60;99.90
18717;DHT22;9487;50.892;6.906;2022-10-17T02:02:44;15.70;99.90
18717;DHT22;9487;50.892;6.906;2022-10-17T02:05:12;15.60;99.90
18717;DHT22;9487;50.892;6.906;2022-10-17T02:07:40;15.70;99.90
18717;DHT22;9487;50.892;6.906;2022-10-17T02:10:12;15.70;99.90
18717;DHT22;9487;50.892;6.906;2022-10-17T02:12:48;15.80;99.90
18717;DHT22;9487;50.892;6.906;2022-10-17T02:18:26;16.00;99.90
18717;DHT22;9487;50.892;6.906;2022-10-17T02:21:02;16.10;99.90
18717;DHT22;9487;50.892;6.906;2022-10-17T02:23:36;16.20;99.90
18717;DHT22;9487;50.892;6.906;2022-10-17T02:26:09;16.20;99.90
18717;DHT22;9487;50.892;6.906;2022-10-17T02:28:40;16.20;99.90
18717;DHT22;9487;50.892;6.906;2022-10-17T02:31:12;16.20;99.90
18717;DHT22;9487;50.892;6.906;2022-10-17T02:33:45;16.30;99.90
18717;DHT22;9487;50.892;6.906;2022-10-17T02:36:16;16.30;99.90
18717;DHT22;9487;50.892;6.906;2022-10-17T02:38:44;16.20;99.90
18717;DHT22;9487;50.892;6.906;2022-10-17T02:41:14;16.20;99.90
18717;DHT22;9487;50.892;6.906;2022-10-17T02:43:43;16.20;99.90
18717;DHT22;9487;50.892;6.906;2022-10-17T02:46:13;16.10;99.90
18717;DHT22;9487;50.892;6.906;2022-10-17T02:48:49;16.10;99.90
18717;DHT22;9487;50.892;6.906;2022-10-17T02:51:23;16.20;99.90
18717;DHT22;9487;50.892;6.906;2022-10-17T02:53:57;16.10;99.90
18717;DHT22;9487;50.892;6.906;2022-10-17T02:56:29;16.20;99.90
18717;DHT22;9487;50.892;6.906;2022-10-17T02:58:58;16.20;99.90
18717;DHT22;9487;50.892;6.906;2022-10-17T03:01:26;16.20;99.90
18717;DHT22;9487;50.892;6.906;2022-10-17T03:04:06;16.10;99.90
18717;DHT22;9487;50.892;6.906;2022-10-17T03:06:34;16.00;99.90
18717;DHT22;9487;50.892;6.906;2022-10-17T03:09:01;16.10;99.90
18717;DHT22;9487;50.892;6.906;2022-10-17T03:11:28;16.20;99.90
18717;DHT22;9487;50.892;6.906;2022-10-17T03:13:55;16.20;99.90
18717;DHT22;9487;50.892;6.906;2022-10-17T03:16:22;16.30;99.90
18717;DHT22;9487;50.892;6.906;2022-10-17T03:18:49;16.30;99.90
18717;DHT22;9487;50.892;6.906;2022-10-17T03:21:17;16.20;99.90
18717;DHT22;9487;50.892;6.906;2022-10-17T03:23:44;16.30;99.90
18717;DHT22;9487;50.892;6.906;2022-10-17T03:26:11;16.20;99.90
18717;DHT22;9487;50.892;6.906;2022-10-17T03:28:38;16.20;99.90
18717;DHT22;9487;50.892;6.906;2022-10-17T03:31:08;16.30;99.90
18717;DHT22;9487;50.892;6.906;2022-10-17T03:33:36;16.30;99.90
18717;DHT22;9487;50.892;6.906;2022-10-17T03:36:06;16.20;99.90
18717;DHT22;9487;50.892;6.906;2022-10-17T03:38:34;16.30;99.90
18717;DHT22;9487;50.892;6.906;2022-10-17T03:41:02;16.20;99.90
18717;DHT22;9487;50.892;6.906;2022-10-17T03:43:29;16.20;99.90
18717;DHT22;9487;50.892;6.906;2022-10-17T03:45:56;16.20;99.90
18717;DHT22;9487;50.892;6.906;2022-10-17T03:48:23;16.30;99.90
18717;DHT22;9487;50.892;6.906;2022-10-17T03:50:50;16.30;99.90
18717;DHT22;9487;50.892;6.906;2022-10-17T03:53:17;16.30;99.90
18717;DHT22;9487;50.892;6.906;2022-10-17T03:55:45;16.20;99.90
18717;DHT22;9487;50.892;6.906;2022-10-17T03:58:12;16.30;99.90
18717;DHT22;9487;50.892;6.906;2022-10-17T04:00:39;16.40;99.90
18717;DHT22;9487;50.892;6.906;2022-10-17T04:03:06;16.40;99.90
18717;DHT22;9487;50.892;6.906;2022-10-17T04:05:33;16.40;99.90
18717;DHT22;9487;50.892;6.906;2022-10-17T04:07:59;16.40;99.90
18717;DHT22;9487;50.892;6.906;2022-10-17T04:10:26;16.40;99.90
18717;DHT22;9487;50.892;6.906;2022-10-17T04:12:55;16.30;99.90
18717;DHT22;9487;50.892;6.906;2022-10-17T04:15:22;16.30;99.90
18717;DHT22;9487;50.892;6.906;2022-10-17T04:17:49;16.40;99.90
18717;DHT22;9487;50.892;6.906;2022-10-17T04:20:16;16.40;99.90
18717;DHT22;9487;50.892;6.906;2022-10-17T04:22:43;16.40;99.90
18717;DHT22;9487;50.892;6.906;2022-10-17T04:25:10;16.50;99.90
18717;DHT22;9487;50.892;6.906;2022-10-17T04:27:37;16.50;99.90
18717;DHT22;9487;50.892;6.906;2022-10-17T04:30:06;16.50;99.90
18717;DHT22;9487;50.892;6.906;2022-10-17T04:32:36;16.50;99.90
18717;DHT22;9487;50.892;6.906;2022-10-17T04:35:04;16.50;99.90
18717;DHT22;9487;50.892;6.906;2022-10-17T04:37:31;16.50;99.90
18717;DHT22;9487;50.892;6.906;2022-10-17T04:39:57;16.50;99.90
18717;DHT22;9487;50.892;6.906;2022-10-17T04:42:24;16.50;99.90
18717;DHT22;9487;50.892;6.906;2022-10-17T04:44:51;16.40;99.90
18717;DHT22;9487;50.892;6.906;2022-10-17T04:47:19;16.30;99.90
18717;DHT22;9487;50.892;6.906;2022-10-17T04:49:46;16.30;99.90
18717;DHT22;9487;50.892;6.906;2022-10-17T04:52:13;16.20;99.90
18717;DHT22;9487;50.892;6.906;2022-10-17T04:54:40;16.30;99.90
18717;DHT22;9487;50.892;6.906;2022-10-17T04:57:07;16.30;99.90
18717;DHT22;9487;50.892;6.906;2022-10-17T04:59:34;16.40;99.90
18717;DHT22;9487;50.892;6.906;2022-10-17T05:02:01;16.50;99.90
18717;DHT22;9487;50.892;6.906;2022-10-17T05:04:29;16.40;99.90
18717;DHT22;9487;50.892;6.906;2022-10-17T05:06:56;16.30;99.90
18717;DHT22;9487;50.892;6.906;2022-10-17T05:09:22;16.40;99.90
18717;DHT22;9487;50.892;6.906;2022-10-17T05:11:49;16.40;99.90
18717;DHT22;9487;50.892;6.906;2022-10-17T05:14:16;16.50;99.90
18717;DHT22;9487;50.892;6.906;2022-10-17T05:16:43;16.50;99.90
18717;DHT22;9487;50.892;6.906;2022-10-17T05:19:10;16.60;99.90
18717;DHT22;9487;50.892;6.906;2022-10-17T05:21:38;16.60;99.90
18717;DHT22;9487;50.892;6.906;2022-10-17T05:24:06;16.70;99.90
18717;DHT22;9487;50.892;6.906;2022-10-17T05:26:33;16.70;99.90
18717;DHT22;9487;50.892;6.906;2022-10-17T05:29:00;16.60;99.90
18717;DHT22;9487;50.892;6.906;2022-10-17T05:31:28;16.60;99.90
18717;DHT22;9487;50.892;6.906;2022-10-17T05:33:55;16.60;99.90
18717;DHT22;9487;50.892;6.906;2022-10-17T05:36:25;16.60;99.90
18717;DHT22;9487;50.892;6.906;2022-10-17T05:38:53;16.60;99.90
18717;DHT22;9487;50.892;6.906;2022-10-17T05:41:20;16.60;99.90
18717;DHT22;9487;50.892;6.906;2022-10-17T05:43:47;16.60;99.90
18717;DHT22;9487;50.892;6.906;2022-10-17T05:46:14;16.70;99.90
18717;DHT22;9487;50.892;6.906;2022-10-17T05:48:41;16.70;99.90
18717;DHT22;9487;50.892;6.906;2022-10-17T05:51:09;16.70;99.90
18717;DHT22;9487;50.892;6.906;2022-10-17T05:53:38;16.70;99.90
18717;DHT22;9487;50.892;6.906;2022-10-17T05:56:09;16.80;99.90
18717;DHT22;9487;50.892;6.906;2022-10-17T05:58:39;16.70;99.90
18717;DHT22;9487;50.892;6.906;2022-10-17T06:01:07;16.70;99.90
18717;DHT22;9487;50.892;6.906;2022-10-17T06:03:33;16.70;99.90
18717;DHT22;9487;50.892;6.906;2022-10-17T06:06:04;16.80;99.90
18717;DHT22;9487;50.892;6.906;2022-10-17T06:08:31;16.80;99.90
18717;DHT22;9487;50.892;6.906;2022-10-17T06:10:58;16.80;99.90
18717;DHT22;9487;50.892;6.906;2022-10-17T06:13:27;16.80;99.90
18717;DHT22;9487;50.892;6.906;2022-10-17T06:15:53;16.80;99.90
18717;DHT22;9487;50.892;6.906;2022-10-17T06:18:20;16.80;99.90
18717;DHT22;9487;50.892;6.906;2022-10-17T06:20:47;16.80;99.90
18717;DHT22;9487;50.892;6.906;2022-10-17T06:23:14;16.80;99.90
18717;DHT22;9487;50.892;6.906;2022-10-17T06:25:41;16.80;99.90
18717;DHT22;9487;50.892;6.906;2022-10-17T06:28:08;16.80;99.90
18717;DHT22;9487;50.892;6.906;2022-10-17T06:30:38;16.80;99.90
18717;DHT22;9487;50.892;6.906;2022-10-17T06:33:05;16.80;99.90
18717;DHT22;9487;50.892;6.906;2022-10-17T06:35:31;16.80;99.90
18717;DHT22;9487;50.892;6.906;2022-10-17T06:37:58;16.90;99.90
18717;DHT22;9487;50.892;6.906;2022-10-17T06:40:25;17.00;99.90
18717;DHT22;9487;50.892;6.906;2022-10-17T06:42:52;17.10;99.90
18717;DHT22;9487;50.892;6.906;2022-10-17T06:45:18;17.40;99.90
18717;DHT22;9487;50.892;6.906;2022-10-17T06:47:47;17.60;99.90
18717;DHT22;9487;50.892;6.906;2022-10-17T06:50:13;17.80;99.90
18717;DHT22;9487;50.892;6.906;2022-10-17T06:52:40;17.80;99.90
18717;DHT22;9487;50.892;6.906;2022-10-17T06:55:08;17.70;99.90
18717;DHT22;9487;50.892;6.906;2022-10-17T06:57:34;17.70;99.90
18717;DHT22;9487;50.892;6.906;2022-10-17T07:00:01;17.60;99.90
18717;DHT22;9487;50.892;6.906;2022-10-17T07:02:28;17.60;99.90
18717;DHT22;9487;50.892;6.906;2022-10-17T07:04:56;17.50;99.90
18717;DHT22;9487;50.892;6.906;2022-10-17T07:07:23;17.60;99.90
18717;DHT22;9487;50.892;6.906;2022-10-17T07:09:50;17.70;99.90
18717;DHT22;9487;50.892;6.906;2022-10-17T07:12:18;17.80;99.90
18717;DHT22;9487;50.892;6.906;2022-10-17T07:14:44;17.80;99.90
18717;DHT22;9487;50.892;6.906;2022-10-17T07:17:12;17.90;99.90
18717;DHT22;9487;50.892;6.906;2022-10-17T07:19:38;17.90;99.90
18717;DHT22;9487;50.892;6.906;2022-10-17T07:22:09;18.00;99.90
18717;DHT22;9487;50.892;6.906;2022-10-17T07:24:36;18.10;99.90
18717;DHT22;9487;50.892;6.906;2022-10-17T07:27:03;18.10;99.90
18717;DHT22;9487;50.892;6.906;2022-10-17T07:29:30;18.20;99.90
18717;DHT22;9487;50.892;6.906;2022-10-17T07:31:56;18.30;99.90
18717;DHT22;9487;50.892;6.906;2022-10-17T07:34:23;18.20;99.90
18717;DHT22;9487;50.892;6.906;2022-10-17T07:36:52;18.30;99.90
18717;DHT22;9487;50.892;6.906;2022-10-17T07:39:20;18.30;99.90
18717;DHT22;9487;50.892;6.906;2022-10-17T07:41:48;18.30;99.90
18717;DHT22;9487;50.892;6.906;2022-10-17T07:44:15;18.40;99.90
18717;DHT22;9487;50.892;6.906;2022-10-17T07:46:42;18.50;99.90
18717;DHT22;9487;50.892;6.906;2022-10-17T07:49:09;18.60;99.90
18717;DHT22;9487;50.892;6.906;2022-10-17T07:51:36;18.60;99.90
18717;DHT22;9487;50.892;6.906;2022-10-17T07:54:04;18.70;99.90
18717;DHT22;9487;50.892;6.906;2022-10-17T07:56:32;18.80;99.90
18717;DHT22;9487;50.892;6.906;2022-10-17T07:58:59;19.00;99.90
18717;DHT22;9487;50.892;6.906;2022-10-17T08:01:26;19.10;99.90
18717;DHT22;9487;50.892;6.906;2022-10-17T08:03:52;19.20;99.90
18717;DHT22;9487;50.892;6.906;2022-10-17T08:06:19;19.20;99.90
18717;DHT22;9487;50.892;6.906;2022-10-17T08:08:46;19.20;99.90
18717;DHT22;9487;50.892;6.906;2022-10-17T08:11:14;19.20;99.90
18717;DHT22;9487;50.892;6.906;2022-10-17T08:13:42;19.20;99.90
18717;DHT22;9487;50.892;6.906;2022-10-17T08:16:11;19.30;99.90
18717;DHT22;9487;50.892;6.906;2022-10-17T08:18:39;19.30;99.90
18717;DHT22;9487;50.892;6.906;2022-10-17T08:21:06;19.20;99.90
18717;DHT22;9487;50.892;6.906;2022-10-17T08:23:34;19.20;99.90
18717;DHT22;9487;50.892;6.906;2022-10-17T08:26:02;19.20;99.90
18717;DHT22;9487;50.892;6.906;2022-10-17T08:28:30;19.20;99.90
18717;DHT22;9487;50.892;6.906;2022-10-17T08:31:10;19.20;99.90
18717;DHT22;9487;50.892;6.906;2022-10-17T08:33:37;19.10;99.90
18717;DHT22;9487;50.892;6.906;2022-10-17T08:36:05;19.10;99.90
18717;DHT22;9487;50.892;6.906;2022-10-17T08:38:34;19.20;99.90
18717;DHT22;9487;50.892;6.906;2022-10-17T08:41:04;19.20;99.90
18717;DHT22;9487;50.892;6.906;2022-10-17T08:43:54;19.30;99.90
18717;DHT22;9487;50.892;6.906;2022-10-17T08:46:29;19.40;99.90
18717;DHT22;9487;50.892;6.906;2022-10-17T08:48:58;19.40;99.90
18717;DHT22;9487;50.892;6.906;2022-10-17T08:51:29;19.30;99.90
18717;DHT22;9487;50.892;6.906;2022-10-17T08:54:05;19.30;99.90
18717;DHT22;9487;50.892;6.906;2022-10-17T08:56:41;19.40;99.90
18717;DHT22;9487;50.892;6.906;2022-10-17T08:59:10;19.50;99.90
18717;DHT22;9487;50.892;6.906;2022-10-17T09:01:45;19.50;99.90
18717;DHT22;9487;50.892;6.906;2022-10-17T09:04:33;19.50;99.90
18717;DHT22;9487;50.892;6.906;2022-10-17T09:07:07;19.50;99.90
18717;DHT22;9487;50.892;6.906;2022-10-17T09:09:43;19.70;99.90
18717;DHT22;9487;50.892;6.906;2022-10-17T09:12:17;19.70;99.90
18717;DHT22;9487;50.892;6.906;2022-10-17T09:14:58;19.70;99.90
18717;DHT22;9487;50.892;6.906;2022-10-17T09:17:37;19.80;99.90
18717;DHT22;9487;50.892;6.906;2022-10-17T09:20:11;19.80;99.90
18717;DHT22;9487;50.892;6.906;2022-10-17T09:22:44;19.80;99.90
18717;DHT22;9487;50.892;6.906;2022-10-17T09:25:15;19.80;99.90
18717;DHT22;9487;50.892;6.906;2022-10-17T09:27:45;19.80;99.90
18717;DHT22;9487;50.892;6.906;2022-10-17T09:30:34;19.90;99.90
18717;DHT22;9487;50.892;6.906;2022-10-17T09:33:09;19.80;99.90
18717;DHT22;9487;50.892;6.906;2022-10-17T09:35:37;19.80;99.90
18717;DHT22;9487;50.892;6.906;2022-10-17T09:38:04;19.80;99.90
18717;DHT22;9487;50.892;6.906;2022-10-17T09:40:34;19.90;99.90
18717;DHT22;9487;50.892;6.906;2022-10-17T09:43:04;19.90;99.90
18717;DHT22;9487;50.892;6.906;2022-10-17T09:45:38;19.80;99.90
18717;DHT22;9487;50.892;6.906;2022-10-17T09:48:17;19.70;99.90
18717;DHT22;9487;50.892;6.906;2022-10-17T09:50:47;19.70;99.90
18717;DHT22;9487;50.892;6.906;2022-10-17T09:53:19;19.70;99.90
18717;DHT22;9487;50.892;6.906;2022-10-17T09:55:50;19.70;99.90
18717;DHT22;9487;50.892;6.906;2022-10-17T09:58:20;19.80;99.90
18717;DHT22;9487;50.892;6.906;2022-10-17T10:00:48;19.90;99.90
18717;DHT22;9487;50.892;6.906;2022-10-17T10:03:18;19.90;99.90
18717;DHT22;9487;50.892;6.906;2022-10-17T10:06:00;20.00;99.90
18717;DHT22;9487;50.892;6.906;2022-10-17T10:08:29;20.10;99.90
18717;DHT22;9487;50.892;6.906;2022-10-17T10:10:59;20.10;99.90
18717;DHT22;9487;50.892;6.906;2022-10-17T10:13:28;20.20;99.90
18717;DHT22;9487;50.892;6.906;2022-10-17T10:16:13;20.30;99.90
18717;DHT22;9487;50.892;6.906;2022-10-17T10:18:41;20.50;99.90
18717;DHT22;9487;50.892;6.906;2022-10-17T10:21:11;20.70;99.90
18717;DHT22;9487;50.892;6.906;2022-10-17T10:23:39;20.90;99.90
18717;DHT22;9487;50.892;6.906;2022-10-17T10:26:24;21.00;99.90
18717;DHT22;9487;50.892;6.906;2022-10-17T10:28:56;20.90;99.90
18717;DHT22;9487;50.892;6.906;2022-10-17T10:31:35;20.90;99.90
18717;DHT22;9487;50.892;6.906;2022-10-17T10:34:15;20.90;99.90
18717;DHT22;9487;50.892;6.906;2022-10-17T10:36:59;20.90;99.90
18717;DHT22;9487;50.892;6.906;2022-10-17T10:39:43;20.90;99.90
18717;DHT22;9487;50.892;6.906;2022-10-17T10:42:26;20.80;99.90
18717;DHT22;9487;50.892;6.906;2022-10-17T10:44:56;20.80;99.90
18717;DHT22;9487;50.892;6.906;2022-10-17T10:47:26;20.80;99.90
18717;DHT22;9487;50.892;6.906;2022-10-17T10:50:08;20.70;99.90
18717;DHT22;9487;50.892;6.906;2022-10-17T10:52:45;20.70;99.90
18717;DHT22;9487;50.892;6.906;2022-10-17T10:55:19;20.80;99.90
18717;DHT22;9487;50.892;6.906;2022-10-17T10:57:48;20.80;99.90
18717;DHT22;9487;50.892;6.906;2022-10-17T11:00:20;20.90;99.90
18717;DHT22;9487;50.892;6.906;2022-10-17T11:02:53;20.90;99.90
18717;DHT22;9487;50.892;6.906;2022-10-17T11:05:36;20.90;99.90
18717;DHT22;9487;50.892;6.906;2022-10-17T11:08:13;20.90;99.90
18717;DHT22;9487;50.892;6.906;2022-10-17T11:10:46;20.80;99.90
18717;DHT22;9487;50.892;6.906;2022-10-17T11:13:16;20.90;99.90
18717;DHT22;9487;50.892;6.906;2022-10-17T11:15:48;20.80;99.90
18717;DHT22;9487;50.892;6.906;2022-10-17T11:18:21;20.90;99.90
18717;DHT22;9487;50.892;6.906;2022-10-17T11:20:54;20.90;99.90
18717;DHT22;9487;50.892;6.906;2022-10-17T11:23:29;20.90;99.90
18717;DHT22;9487;50.892;6.906;2022-10-17T11:26:02;20.90;99.90
18717;DHT22;9487;50.892;6.906;2022-10-17T11:28:31;20.90;99.90
18717;DHT22;9487;50.892;6.906;2022-10-17T11:31:01;21.00;99.90
18717;DHT22;9487;50.892;6.906;2022-10-17T11:33:40;21.00;99.90
18717;DHT22;9487;50.892;6.906;2022-10-17T11:36:11;21.10;99.90
18717;DHT22;9487;50.892;6.906;2022-10-17T11:38:46;21.10;99.90
18717;DHT22;9487;50.892;6.906;2022-10-17T11:41:17;21.10;99.90
18717;DHT22;9487;50.892;6.906;2022-10-17T11:43:48;21.10;99.90
18717;DHT22;9487;50.892;6.906;2022-10-17T11:46:20;21.20;99.90
18717;DHT22;9487;50.892;6.906;2022-10-17T11:48:57;21.10;99.90
18717;DHT22;9487;50.892;6.906;2022-10-17T11:51:25;21.10;99.90
18717;DHT22;9487;50.892;6.906;2022-10-17T11:53:56;21.10;99.90
18717;DHT22;9487;50.892;6.906;2022-10-17T11:56:33;21.10;99.90
18717;DHT22;9487;50.892;6.906;2022-10-17T11:59:15;21.10;99.90
18717;DHT22;9487;50.892;6.906;2022-10-17T12:01:52;21.10;99.90
18717;DHT22;9487;50.892;6.906;2022-10-17T12:04:37;21.10;99.90
18717;DHT22;9487;50.892;6.906;2022-10-17T12:07:12;21.10;99.90
18717;DHT22;9487;50.892;6.906;2022-10-17T12:09:45;21.10;99.90
18717;DHT22;9487;50.892;6.906;2022-10-17T12:12:24;21.20;99.90
18717;DHT22;9487;50.892;6.906;2022-10-17T12:14:51;21.10;99.90
18717;DHT22;9487;50.892;6.906;2022-10-17T12:17:29;21.10;99.90
18717;DHT22;9487;50.892;6.906;2022-10-17T12:23:20;21.10;99.90
18717;DHT22;9487;50.892;6.906;2022-10-17T12:25:51;21.10;99.90
18717;DHT22;9487;50.892;6.906;2022-10-17T12:28:23;21.00;99.90
18717;DHT22;9487;50.892;6.906;2022-10-17T12:30:54;21.00;99.90
18717;DHT22;9487;50.892;6.906;2022-10-17T12:33:25;21.10;99.90
18717;DHT22;9487;50.892;6.906;2022-10-17T12:41:58;21.00;99.90
18717;DHT22;9487;50.892;6.906;2022-10-17T12:44:35;21.00;99.90
18717;DHT22;9487;50.892;6.906;2022-10-17T12:47:26;21.00;99.90
18717;DHT22;9487;50.892;6.906;2022-10-17T12:49:53;21.10;99.90
18717;DHT22;9487;50.892;6.906;2022-10-17T12:52:23;21.10;99.90
18717;DHT22;9487;50.892;6.906;2022-10-17T12:54:57;21.00;99.90
18717;DHT22;9487;50.892;6.906;2022-10-17T12:57:31;21.00;99.90
18717;DHT22;9487;50.892;6.906;2022-10-17T13:00:02;21.10;99.90
18717;DHT22;9487;50.892;6.906;2022-10-17T13:02:30;21.10;99.90
18717;DHT22;9487;50.892;6.906;2022-10-17T13:05:04;21.10;99.90
18717;DHT22;9487;50.892;6.906;2022-10-17T13:07:34;21.30;99.90
18717;DHT22;9487;50.892;6.906;2022-10-17T13:10:03;21.40;99.90
18717;DHT22;9487;50.892;6.906;2022-10-17T13:12:32;21.40;99.90
18717;DHT22;9487;50.892;6.906;2022-10-17T13:15:03;21.50;99.90
18717;DHT22;9487;50.892;6.906;2022-10-17T13:17:31;21.40;99.90
18717;DHT22;9487;50.892;6.906;2022-10-17T13:19:59;21.40;99.90
18717;DHT22;9487;50.892;6.906;2022-10-17T13:22:28;21.50;99.90
18717;DHT22;9487;50.892;6.906;2022-10-17T13:25:07;21.40;99.90
18717;DHT22;9487;50.892;6.906;2022-10-17T13:27:36;21.40;99.90
18717;DHT22;9487;50.892;6.906;2022-10-17T13:30:22;21.40;99.90
18717;DHT22;9487;50.892;6.906;2022-10-17T13:32:49;21.50;99.90
18717;DHT22;9487;50.892;6.906;2022-10-17T13:35:22;21.40;99.90
18717;DHT22;9487;50.892;6.906;2022-10-17T13:37:50;21.30;99.90
18717;DHT22;9487;50.892;6.906;2022-10-17T13:40:21;21.30;99.90
18717;DHT22;9487;50.892;6.906;2022-10-17T13:42:49;21.30;99.90
18717;DHT22;9487;50.892;6.906;2022-10-17T13:45:19;21.20;99.90
18717;DHT22;9487;50.892;6.906;2022-10-17T13:47:46;21.30;99.90
18717;DHT22;9487;50.892;6.906;2022-10-17T13:50:22;21.30;99.90
18717;DHT22;9487;50.892;6.906;2022-10-17T13:53:05;21.40;99.90
18717;DHT22;9487;50.892;6.906;2022-10-17T13:55:34;21.50;99.90
18717;DHT22;9487;50.892;6.906;2022-10-17T13:58:14;21.60;99.90
18717;DHT22;9487;50.892;6.906;2022-10-17T14:00:43;21.60;99.90
18717;DHT22;9487;50.892;6.906;2022-10-17T14:03:10;21.70;99.90
18717;DHT22;9487;50.892;6.906;2022-10-17T14:06:11;21.80;99.90
18717;DHT22;9487;50.892;6.906;2022-10-17T14:08:50;21.80;99.90
18717;DHT22;9487;50.892;6.906;2022-10-17T14:11:23;22.00;99.90
18717;DHT22;9487;50.892;6.906;2022-10-17T14:13:52;21.90;99.90
18717;DHT22;9487;50.892;6.906;2022-10-17T14:16:20;22.00;99.90
18717;DHT22;9487;50.892;6.906;2022-10-17T14:18:48;22.00;99.90
18717;DHT22;9487;50.892;6.906;2022-10-17T14:21:21;22.10;99.90
18717;DHT22;9487;50.892;6.906;2022-10-17T14:23:49;22.20;99.90
18717;DHT22;9487;50.892;6.906;2022-10-17T14:26:18;22.20;99.90
18717;DHT22;9487;50.892;6.906;2022-10-17T14:28:49;22.20;99.90
18717;DHT22;9487;50.892;6.906;2022-10-17T14:31:23;22.20;99.90
18717;DHT22;9487;50.892;6.906;2022-10-17T14:33:52;22.20;99.90
18717;DHT22;9487;50.892;6.906;2022-10-17T14:36:20;22.20;99.90
18717;DHT22;9487;50.892;6.906;2022-10-17T14:38:55;22.20;99.90
18717;DHT22;9487;50.892;6.906;2022-10-17T14:41:23;22.10;99.90
18717;DHT22;9487;50.892;6.906;2022-10-17T14:43:53;22.10;99.90
18717;DHT22;9487;50.892;6.906;2022-10-17T14:46:21;22.10;99.90
18717;DHT22;9487;50.892;6.906;2022-10-17T14:48:53;22.10;99.90
18717;DHT22;9487;50.892;6.906;2022-10-17T14:51:20;22.00;99.90
18717;DHT22;9487;50.892;6.906;2022-10-17T14:54:15;22.00;99.90
18717;DHT22;9487;50.892;6.906;2022-10-17T14:56:48;22.00;99.90
18717;DHT22;9487;50.892;6.906;2022-10-17T14:59:17;21.90;99.90
18717;DHT22;9487;50.892;6.906;2022-10-17T15:01:48;21.80;99.90
18717;DHT22;9487;50.892;6.906;2022-10-17T15:04:15;21.90;99.90
18717;DHT22;9487;50.892;6.906;2022-10-17T15:06:43;21.90;99.90
18717;DHT22;9487;50.892;6.906;2022-10-17T15:09:10;21.90;99.90
18717;DHT22;9487;50.892;6.906;2022-10-17T15:11:37;21.90;99.90
18717;DHT22;9487;50.892;6.906;2022-10-17T15:14:04;21.90;99.90
18717;DHT22;9487;50.892;6.906;2022-10-17T15:16:33;21.80;99.90
18717;DHT22;9487;50.892;6.906;2022-10-17T15:19:01;21.70;99.90
18717;DHT22;9487;50.892;6.906;2022-10-17T15:21:28;21.70;99.90
18717;DHT22;9487;50.892;6.906;2022-10-17T15:23:55;21.80;99.90
18717;DHT22;9487;50.892;6.906;2022-10-17T15:26:25;21.60;99.90
18717;DHT22;9487;50.892;6.906;2022-10-17T15:28:53;21.70;99.90
18717;DHT22;9487;50.892;6.906;2022-10-17T15:31:21;21.70;99.90
18717;DHT22;9487;50.892;6.906;2022-10-17T15:33:50;21.60;99.90
18717;DHT22;9487;50.892;6.906;2022-10-17T15:36:21;21.50;99.90
18717;DHT22;9487;50.892;6.906;2022-10-17T15:38:51;21.40;99.90
18717;DHT22;9487;50.892;6.906;2022-10-17T15:41:20;21.30;99.90
18717;DHT22;9487;50.892;6.906;2022-10-17T15:43:47;21.30;99.90
18717;DHT22;9487;50.892;6.906;2022-10-17T15:46:17;21.40;99.90
18717;DHT22;9487;50.892;6.906;2022-10-17T15:48:44;21.40;99.90
18717;DHT22;9487;50.892;6.906;2022-10-17T15:51:12;21.40;99.90
18717;DHT22;9487;50.892;6.906;2022-10-17T15:53:39;21.40;99.90
18717;DHT22;9487;50.892;6.906;2022-10-17T15:56:07;21.30;99.90
18717;DHT22;9487;50.892;6.906;2022-10-17T15:58:36;21.30;99.90
18717;DHT22;9487;50.892;6.906;2022-10-17T16:01:05;21.10;99.90
18717;DHT22;9487;50.892;6.906;2022-10-17T16:03:33;21.20;99.90
18717;DHT22;9487;50.892;6.906;2022-10-17T16:05:59;21.20;99.90
18717;DHT22;9487;50.892;6.906;2022-10-17T16:08:27;21.10;99.90
18717;DHT22;9487;50.892;6.906;2022-10-17T16:10:55;21.10;99.90
18717;DHT22;9487;50.892;6.906;2022-10-17T16:13:23;20.90;99.90
18717;DHT22;9487;50.892;6.906;2022-10-17T16:15:50;20.80;99.90
18717;DHT22;9487;50.892;6.906;2022-10-17T16:18:17;20.80;99.90